Nearby METAR Reports

 

KSYN - Stanton, Minnesota, USA
Distance from station: NW 20mi, 33km
Updated: Tue, 14-Aug-2018 4:55pm CDT
Nearby thunderstorm, Partly cloudy
Nearby thunderstorm, Partly cloudy
 Wind from S
Wind: S 3 mph , 6 km/h
Temperature: 88°F , 31°C
Heat Index: 91°F , 33°C
Dew Point: 66°F , 19°C
Humidity: 49%
Barometer: 29.89 inHg , 1012.2 hPa
Summary: Nearby Thunderstorm
Clouds: Partly cloudy
Visibility: 10 miles , 16 km
Cloud details: Partly cloudy 12000 ft
2018/08/14 21:55 KSYN 142155Z AUTO 18003KT 10SM VCTS SCT120 31/19 A2989 RMK AO2 LTG DSNT SW T03050189
KTOB - Dodge Center, Minnesota, USA
Distance from station: SSW 21mi, 34km
Updated: Tue, 14-Aug-2018 4:55pm CDT
Clear
Clear
 Wind from S
Wind: S 6 mph , 9 km/h
Temperature: 84°F , 29°C
Heat Index: 86°F , 30°C
Dew Point: 66°F , 19°C
Humidity: 55%
Barometer: 29.92 inHg , 1013.2 hPa
Clouds: Clear
Visibility: 10 miles , 16 km
2018/08/14 21:55 KTOB 142155Z AUTO 18005KT 10SM CLR 29/19 A2992 RMK AO2 LTG DSNT W
K9MN - St Mary Hospital, Minnesota, USA
Distance from station: SSE 22mi, 35km
Updated: Tue, 14-Aug-2018 4:55pm CDT
Clear
Clear
 Wind from S
Wind: S 6 mph , 9 km/h
Temperature: 86°F , 30°C
Heat Index: 88°F , 31°C
Dew Point: 64°F , 18°C
Humidity: 49%
Barometer: 29.92 inHg , 1013.2 hPa
Clouds: Clear
Visibility: 10 miles , 16 km
2018/08/14 21:55 K9MN 142155Z AUTO 17005KT 10SM CLR 30/18 A2992 RMK AO1 T03000182
 
KRGK - Red Wing, Minnesota, USA
Distance from station: NNE 22mi, 35km
Updated: Tue, 14-Aug-2018 4:55pm CDT
Mostly cloudy
Mostly cloudy
 Wind from SSW
Wind: SSW 6 mph , 9 km/h
Temperature: 91°F , 33°C
Dew Point: 55°F , 13°C
Humidity: 30%
Barometer: 29.87 inHg , 1011.5 hPa
Clouds: Mostly cloudy
Visibility: 10 miles , 16 km
Cloud details: Mostly cloudy 7000 ft
Mostly cloudy 11000 ft
2018/08/14 21:55 KRGK 142155Z AUTO 21005KT 10SM BKN070 BKN110 33/13 A2987 RMK AO2 LTG DSNT SW
KRST - Rochester, Minnesota, USA
Distance from station: SSE 29mi, 47km
Updated: Tue, 14-Aug-2018 4:54pm CDT
Few Clouds
Few Clouds
 Wind from SSW
Wind: SSW 8 mph , 13 km/h
Temperature: 84°F , 29°C
Heat Index: 88°F , 31°C
Dew Point: 70°F , 21°C
Humidity: 62%
Barometer: 29.93 inHg , 1013.5 hPa
Clouds: Few Clouds
Visibility: 10 miles , 16 km
Cloud details: Few Clouds 6500 ft
2018/08/14 21:54 KRST 142154Z 20007KT 10SM FEW065 29/21 A2993 RMK AO2 SLP127 T02890211
KOWA - Owatonna, Minnesota, USA
Distance from station: WSW 31mi, 50km
Updated: Tue, 14-Aug-2018 4:54pm CDT
Partly cloudy
Partly cloudy
 Wind from W
Wind: W 3 mph , 6 km/h
Temperature: 86°F , 30°C
Heat Index: 92°F , 33°C
Dew Point: 72°F , 22°C
Humidity: 62%
Barometer: 29.90 inHg , 1012.5 hPa
Clouds: Partly cloudy
Visibility: 10 miles , 16 km
Cloud details: Partly cloudy 4400 ft
Partly cloudy 5000 ft
Partly cloudy 9000 ft
2018/08/14 21:54 KOWA 142154Z AUTO 27003KT 10SM SCT044 SCT050 SCT090 30/22 A2990 RMK AO2 LT
 
KFBL - Faribault Muni, Minnesota, USA
Distance from station: W 32mi, 51km
Updated: Tue, 14-Aug-2018 1:24pm CDT
NOT Current
Mostly cloudy
Mostly cloudy
 Wind from W
Wind: W 3 mph , 6 km/h
Temperature: 82°F , 28°C
Heat Index: 86°F , 30°C
Dew Point: 70°F , 21°C
Humidity: 66%
Barometer: 29.95 inHg , 1014.2 hPa
Clouds: Mostly cloudy
Visibility: 10 miles , 16 km
Cloud details: Partly cloudy 6000 ft
Mostly cloudy 10000 ft
2018/08/14 18:24 KFBL 141824Z AUTO 28003KT 10SM SCT060 BKN100 28/21 A2995 RMK AO2 LTG DSNT W
KSGS - South St Paul, Minnesota, USA
Distance from station: NNW 43mi, 69km
Updated: Tue, 14-Aug-2018 4:55pm CDT
Clear
Clear
 Wind from SW
Wind: SW 7 mph , 11 km/h
Temperature: 88°F , 31°C
Heat Index: 90°F , 32°C
Dew Point: 64°F , 18°C
Humidity: 46%
Barometer: 29.88 inHg , 1011.9 hPa
Clouds: Clear
Visibility: 10 miles , 16 km
2018/08/14 21:55 KSGS 142155Z AUTO 22006KT 10SM CLR 31/18 A2988 RMK AO2 LTG DSNT SW T03120181
KAUM - Austin Muni, Minnesota, USA
Distance from station: SSW 46mi, 73km
Updated: Tue, 14-Aug-2018 4:55pm CDT
Clear
Clear
 Wind from S
Wind: S 8 mph , 13 km/h
Temperature: 82°F , 28°C
Heat Index: 86°F , 30°C
Dew Point: 70°F , 21°C
Humidity: 66%
Barometer: 29.91 inHg , 1012.9 hPa
Clouds: Clear
Visibility: 10 miles , 16 km
2018/08/14 21:55 KAUM 142155Z AUTO 18007KT 10SM CLR 28/21 A2991 RMK AO2 LTG DSNT W
 
KACQ - Waseca, Minnesota, USA
Distance from station: WSW 46mi, 75km
Updated: Tue, 14-Aug-2018 4:55pm CDT
Nearby thunderstorm, Clear
Nearby thunderstorm, Clear
 Wind from NW
Wind: NW 5 mph , 7 km/h
Temperature: 82°F , 28°C
Heat Index: 86°F , 30°C
Dew Point: 72°F , 22°C
Humidity: 70%
Barometer: 29.91 inHg , 1012.9 hPa
Summary: Nearby Thunderstorm
Clouds: Clear
Visibility: 10 miles , 16 km
2018/08/14 21:55 KACQ 142155Z AUTO 31004KT 10SM VCTS CLR 28/22 A2991 RMK AO2 LTG DSNT S AND SW
KSTP - St. Paul, Minnesota, USA
Distance from station: NNW 47mi, 76km
Updated: Tue, 14-Aug-2018 4:53pm CDT
Clear
Clear
 Wind from SW
Wind: SW 9 mph , 15 km/h
Temperature: 88°F , 31°C
Heat Index: 91°F , 33°C
Dew Point: 66°F , 19°C
Humidity: 49%
Barometer: 29.88 inHg , 1011.9 hPa
Clouds: Clear
Visibility: 10 miles , 16 km
2018/08/14 21:53 KSTP 142153Z 22008KT 10SM CLR 31/19 A2988 RMK AO2 SLP111 T03060189
KMSP - Minneapolis, Minnesota, USA
Distance from station: NW 49mi, 78km
Updated: Tue, 14-Aug-2018 4:53pm CDT
Overcast
Overcast
 Wind from WSW
Wind: WSW 8 mph , 13 km/h
Temperature: 88°F , 31°C
Heat Index: 91°F , 33°C
Dew Point: 66°F , 19°C
Humidity: 49%
Barometer: 29.89 inHg , 1012.2 hPa
Clouds: Overcast
Visibility: 9 miles , 14 km
Cloud details: Few Clouds 5000 ft
Few Clouds 7000 ft
Partly cloudy 24000 ft
Overcast 30000 ft
2018/08/14 21:53 KMSP 142153Z 25007KT 9SM FEW050 FEW070 SCT240 OVC300 31/19 A2989 RMK AO2 SLP114 TCU DSNT NE AND NW T03110189